• Join FlightAware (Why Join?)
  • Login
  • US Flag 
01:37PM EDT


 

Airport Tracker/Info


-or-


 

Live Flight TrackerFlight Track Log ✈ FFT346 ✈ 02-May-2013 ✈ KDEN - KBBG

Flight Track Log - Related Links

Times and Time Zones

All times are in EDT time to prevent confusion due to time zone crossing. See the FFT346 flight status page for this flight to view local times or setup timezone preferences in your user account.

Time Position Orientation Groundspeed Altitude Reporting Facility
EDT Latitude Longitude Course Direction KTS MPH feet Rate Location/Type
12:32PM 39.8833 -104.6000 116° Southeast 186 214 6,500  Level Denver TRACON
12:33PM 39.8542 -104.5233 116° Southeast 214 246 8,100 2,100 Climbing Denver Center
12:34PM 39.8211 -104.4297 115° Southeast 279 321 10,800 2,640 Climbing Denver Center
12:35PM 39.7831 -104.3164 114° Southeast 315 362 13,600 2,760 Climbing Denver Center
12:36PM 39.7431 -104.2014 114° Southeast 348 400 16,600 2,400 Climbing Denver Center
12:37PM 39.6981 -104.0744 115° Southeast 361 415 18,600 2,100 Climbing Denver Center
12:38PM 39.6550 -103.9494 114° Southeast 380 437 21,000 2,100 Climbing Denver Center
12:39PM 39.6011 -103.8250 119° Southeast 395 455 23,000 1,920 Climbing Denver Center
12:40PM 39.5600 -103.6778 110° East 405 466 25,000 1,740 Climbing Denver Center
12:41PM 39.5239 -103.5386 109° East 417 480 26,600 1,740 Climbing Denver Center
12:42PM 39.4800 -103.3714 109° East 434 499 28,600 1,560 Climbing Denver Center
12:43PM 39.4411 -103.2258 109° East 442 509 29,900 1,260 Climbing Denver Center
12:44PM 39.3939 -103.0489 109° East 459 528 31,300 1,260 Climbing Denver Center
12:45PM 39.3533 -102.8961 109° East 465 535 32,600 1,440 Climbing Denver Center
12:46PM 39.3033 -102.7122 109° East 480 552 34,300 1,380 Climbing Denver Center
12:47PM 39.2625 -102.5600 109° East 474 545 35,500 1,140 Climbing Denver Center
12:48PM 39.2128 -102.3786 109° East 480 552 36,700 1,320 Climbing Denver Center
12:49PM 39.1703 -102.2264 110° East 473 544 38,300 720 Climbing Denver Center
12:51PM 39.0792 -101.9008 110° East 469 540 39,000 180 Climbing Denver Center
12:53PM 39.0361 -101.7500 110° East 469 540 39,000  Level Denver Center
12:54PM 38.9769 -101.5447 110° East 480 552 39,000  Level Denver Center
12:55PM 38.9247 -101.3669 111° Southeast 478 550 39,000  Level Denver Center
12:57PM 38.8281 -101.0336 110° East 481 554 39,000  Level Denver Center
12:58PM 38.7831 -100.8819 111° Southeast 475 547 39,000  Level Denver Center
12:59PM 38.7306 -100.7044 111° Southeast 476 548 39,000  Level Denver Center
01:00PM 38.6844 -100.5506 111° Southeast 481 554 39,100  Climbing Denver Center
01:01PM 38.6389 -100.4008 111° Southeast 475 547 39,000 -60 Descending Denver Center
01:02PM 38.5872 -100.2267 111° Southeast 470 541 39,000  Level Denver Center
01:03PM 38.5425 -100.0808 111° Southeast 463 533 39,000  Level Denver Center
01:04PM 38.4906 -99.9125 111° Southeast 457 526 39,000  Level Denver Center
01:04PM 38.4733 -99.8608 113° Southeast 457 526 39,000  Level Kansas City Center
01:05PM 38.4214 -99.6942 112° Southeast 454 522 39,000  Level Kansas City Center
01:06PM 38.3781 -99.5519 111° Southeast 451 519 39,000  Level Kansas City Center
01:07PM 38.3306 -99.4036 112° Southeast 452 520 39,000  Level Kansas City Center
01:08PM 38.2836 -99.2536 112° Southeast 456 525 39,000  Level Kansas City Center
01:09PM 38.2283 -99.0747 111° Southeast 454 522 39,100  Climbing Kansas City Center
01:11PM 38.1792 -98.9261 113° Southeast 456 525 39,000 -60 Descending Kansas City Center
01:12PM 38.1361 -98.7781 110° East 450 518 39,000  Level Kansas City Center
01:13PM 38.0861 -98.6311 113° Southeast 453 521 39,000  Level Kansas City Center
01:14PM 38.0403 -98.4839 112° Southeast 452 520 39,000  Level Kansas City Center
01:15PM 37.9939 -98.3353 112° Southeast 454 522 39,000  Level Kansas City Center
01:16PM 37.9450 -98.1878 113° Southeast 455 524 39,000  Level Kansas City Center
01:17PM 37.8844 -98.0031 113° Southeast 455 524 39,000  Level Kansas City Center
01:18PM 37.8350 -97.8558 113° Southeast 453 521 39,000  Level Kansas City Center
01:19PM 37.7928 -97.7289 113° Southeast 452 520 39,000  Level Kansas City Center
01:20PM 37.7306 -97.5556 114° Southeast 453 521 39,000  Level Kansas City Center
01:21PM 37.6639 -97.4219 122° Southeast 450 518 39,000  Level Kansas City Center
01:22PM 37.5972 -97.2881 122° Southeast 451 519 39,000  Level Kansas City Center
01:23PM 37.5300 -97.1564 123° Southeast 450 518 39,000 -420 Level Kansas City Center
01:24PM 37.4636 -97.0244 122° Southeast 446 513 38,200 -900 Descending Kansas City Center
01:25PM 37.3972 -96.8958 123° Southeast 440 506 37,200 -1,020 Descending Kansas City Center
01:26PM 37.3317 -96.7678 123° Southeast 438 504 36,200 -1,020 Descending Kansas City Center
01:27PM 37.2522 -96.6072 122° Southeast 449 517 35,100 -1,080 Descending Kansas City Center
01:28PM 37.1850 -96.4778 123° Southeast 447 514 34,000 -1,020 Descending Kansas City Center
01:29PM 37.1131 -96.3358 122° Southeast 449 517 33,100 -540 Descending Kansas City Center
01:30PM 37.0467 -96.2050 122° Southeast 445 512 33,000 -60 Descending Kansas City Center
01:31PM 36.9783 -96.0736 123° Southeast 448 516 33,000  Level Kansas City Center
01:32PM 36.9094 -95.9397 123° Southeast 454 522 33,000  Level Kansas City Center
01:33PM 36.8378 -95.8100 125° Southeast 452 520 33,000  Level Kansas City Center
01:34PM 36.7664 -95.6803 124° Southeast 452 520 33,000 -540 Level Kansas City Center
01:35PM 36.6978 -95.5489 123° Southeast 450 518 32,000 -1,080 Descending Kansas City Center
01:36PM 36.6478 -95.3642 109° East 461 531 30,800 -1,080 Descending Kansas City Center
01:37PM 36.6250 -95.2064 100° East 458 527 29,800 -1,020 Descending Kansas City Center
01:38PM 36.6025 -95.0531 100° East 450 518 28,800 -1,020 Descending Kansas City Center
01:39PM 36.5797 -94.9022 101° East 443 510 27,800 -1,020 Descending Kansas City Center
01:40PM 36.5578 -94.7525 100° East 439 505 26,700 -1,500 Descending Kansas City Center
01:42PM 36.5353 -94.6072 101° East 431 496 24,700 -2,040 Descending Kansas City Center
01:43PM 36.5139 -94.4661 101° East 419 482 22,600 -1,800 Descending Kansas City Center
01:44PM 36.4939 -94.3297 100° East 411 473 21,000 -780 Descending Kansas City Center
01:45PM 36.4700 -94.1694 100° East 397 457 21,000 -1,020 Level Kansas City Center
01:46PM 36.4506 -94.0356 100° East 396 456 19,000 -2,100 Descending Kansas City Center
01:47PM 36.4283 -93.9022 102° East 392 451 16,700 -2,160 Descending Kansas City Center
01:47PM 36.4142 -93.8486 108° East 392 451 16,000 -2,100 Descending Memphis Center
01:49PM 36.3892 -93.6456 99° East 376 433 12,400 -2,160 Descending Kansas City Center